createdAt,value
2023-03-02T00:08:13.226Z,1.4
2023-03-02T00:18:13.907Z,1.4
2023-03-02T00:28:14.097Z,1.4
2023-03-02T00:38:14.534Z,1.4
2023-03-02T00:48:14.769Z,1.4
2023-03-02T00:58:14.977Z,1.4
2023-03-02T01:08:21.471Z,1.5
2023-03-02T01:18:21.794Z,1.4
2023-03-02T01:28:22.442Z,1.3
2023-03-02T01:38:22.725Z,1.3
2023-03-02T01:48:23.813Z,1.2
2023-03-02T02:08:25.850Z,0.9
2023-03-02T02:38:26.900Z,0.7
2023-03-02T02:48:27.285Z,0.5
2023-03-02T02:58:28.085Z,0.4
2023-03-02T03:08:28.262Z,0.2
2023-03-02T03:18:28.917Z,0.1
2023-03-02T03:38:30.589Z,0.2
2023-03-02T03:48:31.579Z,0.4
2023-03-02T04:18:33.197Z,0.2
2023-03-02T04:28:33.552Z,0.1
2023-03-02T04:38:33.993Z,0
2023-03-02T04:48:34.672Z,-0.1
2023-03-02T04:58:35.403Z,-0.2
2023-03-02T05:08:35.539Z,-0.2
2023-03-02T05:38:37.905Z,-0.4
2023-03-02T05:48:38.156Z,-0.4
2023-03-02T05:58:38.444Z,-0.4
2023-03-02T06:18:41.527Z,-0.5
2023-03-02T06:28:51.823Z,-0.4
2023-03-02T06:38:41.776Z,-0.3
2023-03-02T06:48:42.281Z,-0.2
2023-03-02T06:58:43.069Z,-0.2
2023-03-02T07:08:43.667Z,0.1
2023-03-02T07:18:43.929Z,0.5
2023-03-02T07:28:44.485Z,0.4
2023-03-02T07:38:44.930Z,1.1
2023-03-02T07:48:45.243Z,1.5
2023-03-02T08:08:47.240Z,2
2023-03-02T08:18:47.560Z,2.4
2023-03-02T08:38:48.827Z,2.8
2023-03-02T08:58:50.639Z,3.4
2023-03-02T09:18:51.725Z,4.2
2023-03-02T09:28:52.550Z,4.5
2023-03-02T09:38:53.141Z,5
2023-03-02T09:48:53.852Z,5.4
2023-03-02T09:58:54.117Z,5.7
2023-03-02T10:08:54.966Z,6
2023-03-02T10:18:56.111Z,6.3
2023-03-02T10:28:56.094Z,6.9
2023-03-02T10:38:56.682Z,7
2023-03-02T10:48:57.717Z,7.5
2023-03-02T10:58:58.797Z,7.5
2023-03-02T11:08:59.126Z,7.6
2023-03-02T11:18:59.406Z,7.9
2023-03-02T11:28:59.888Z,8.2
2023-03-02T11:39:00.988Z,8.7
2023-03-02T11:49:01.620Z,9
2023-03-02T11:59:02.176Z,9.2
2023-03-02T12:09:03.325Z,9.1
2023-03-02T12:19:03.685Z,9.2
2023-03-02T12:29:04.366Z,9.6
2023-03-02T12:59:06.234Z,10.1
2023-03-02T13:09:06.447Z,10.1
2023-03-02T13:19:06.849Z,10.1
2023-03-02T13:29:07.816Z,10.6
2023-03-02T13:39:08.208Z,10.3
2023-03-02T13:49:11.170Z,10.3
2023-03-02T13:59:10.121Z,10.2
2023-03-02T14:09:11.171Z,10.4
2023-03-02T14:19:11.339Z,10.2
2023-03-02T14:29:12.165Z,9.9
2023-03-02T14:39:13.021Z,9.8
2023-03-02T14:49:13.236Z,9.7
2023-03-02T14:59:14.018Z,9.9
2023-03-02T15:09:14.288Z,9.7
2023-03-02T15:19:14.698Z,9.7
2023-03-02T15:39:16.551Z,9.3
2023-03-02T15:49:16.852Z,9.2
2023-03-02T15:59:17.824Z,9
2023-03-02T16:09:17.945Z,8.6
2023-03-02T16:19:19.149Z,8.3
2023-03-02T16:29:18.481Z,7.7
2023-03-02T16:49:19.834Z,7
2023-03-02T16:59:20.301Z,6.7
2023-03-02T17:09:20.961Z,6.4
2023-03-02T17:19:21.986Z,6.1
2023-03-02T17:29:23.041Z,5.7
2023-03-02T17:39:23.311Z,5.3
2023-03-02T17:49:23.556Z,5.1
2023-03-02T17:59:23.699Z,4.8
2023-03-02T18:19:25.596Z,4.2
2023-03-02T18:29:25.968Z,4
2023-03-02T18:39:27.064Z,3.7
2023-03-02T18:49:27.355Z,3.5
2023-03-02T18:59:28.411Z,3.2
2023-03-02T19:09:29.362Z,2.9
2023-03-02T19:19:30.066Z,2.7
2023-03-02T19:29:30.556Z,2.5
2023-03-02T19:49:31.497Z,2.1
2023-03-02T19:59:32.571Z,1.9
2023-03-02T20:09:33.577Z,1.7
2023-03-02T20:19:33.807Z,1.7
2023-03-02T20:39:34.688Z,1.7
2023-03-02T20:49:35.624Z,1.8
2023-03-02T20:59:36.188Z,1.8
2023-03-02T21:09:36.826Z,1.8
2023-03-02T21:19:37.091Z,1.8
2023-03-02T21:29:37.871Z,1.8
2023-03-02T21:39:38.493Z,1.7
2023-03-02T21:49:38.656Z,1.7
2023-03-02T21:59:39.374Z,1.7
2023-03-02T22:09:40.113Z,1.6
2023-03-02T22:19:41.149Z,1.7
2023-03-02T22:29:41.777Z,1.7
2023-03-02T22:39:42.806Z,1.6
2023-03-02T22:49:43.441Z,1.5
2023-03-02T22:59:44.282Z,1.5
2023-03-02T23:09:44.363Z,1.5
2023-03-02T23:19:44.576Z,1.5
2023-03-02T23:29:45.668Z,1.3
2023-03-02T23:39:46.734Z,1.3
2023-03-02T23:49:46.984Z,1.3
2023-03-02T23:59:47.671Z,1.3
